KSTJ

Rosecrans Memorial Airport

St Joseph, Missouri, USA
METAR KSTJ 162353Z AUTO 31004KT 10SM CLR 03/M02 A3028 RMK AO2 SLP263 T00331017 10128 20028 53012
Observed Flight Rules
Dec-16 @ 23:53 UTC (31 minutes ago) Visual Flight Rules
Wind Visibility Clouds
310° at 4 knots 10 miles
  • Clear skies
Temperatures Readings
Current 3°C / 37°F
Dewpoint -2°C / 28°F
Humidity 70%
Altimeter 30.28" Hg
Pressure 1026.3 hPa
Elevation 247
METAR KSTJ 162353Z AUTO 31004KT 10SM CLR 03/M02 A3028 RMK AO2 SLP263 T00331017 10128 20028 53012
Observed Flight Rules
Dec-16 @ 23:53 UTC
(31 minutes ago)
VFR
Wind Visibility
310° at 4 knots 10 miles
Clouds
  • Clear skies
Temperature Dewpoint
3°C / 37°F -2°C / 28°F
Humidity Altimeter Pressure
70% 30.28" Hg 1026.3 hPa